sensor_id;sensor_type;location;lat;lon;timestamp;P1;durP1;ratioP1;P2;durP2;ratioP2
7029;SDS011;3556;53.500;10.176;2024-01-07T00:01:58;3.90;;;2.00;;
7029;SDS011;3556;53.500;10.176;2024-01-07T00:04:24;3.20;;;2.10;;
7029;SDS011;3556;53.500;10.176;2024-01-07T00:06:49;3.40;;;2.10;;
7029;SDS011;3556;53.500;10.176;2024-01-07T00:09:18;4.10;;;1.60;;
7029;SDS011;3556;53.500;10.176;2024-01-07T00:11:44;3.20;;;2.00;;
7029;SDS011;3556;53.500;10.176;2024-01-07T00:14:09;4.73;;;2.10;;
7029;SDS011;3556;53.500;10.176;2024-01-07T00:16:35;5.20;;;1.80;;
7029;SDS011;3556;53.500;10.176;2024-01-07T00:19:00;3.20;;;1.70;;
7029;SDS011;3556;53.500;10.176;2024-01-07T00:21:29;4.53;;;2.10;;
7029;SDS011;3556;53.500;10.176;2024-01-07T00:23:56;3.37;;;1.77;;
7029;SDS011;3556;53.500;10.176;2024-01-07T00:26:21;2.83;;;1.97;;
7029;SDS011;3556;53.500;10.176;2024-01-07T00:28:47;2.20;;;1.90;;
7029;SDS011;3556;53.500;10.176;2024-01-07T00:31:12;5.37;;;2.20;;
7029;SDS011;3556;53.500;10.176;2024-01-07T00:33:38;2.90;;;1.80;;
7029;SDS011;3556;53.500;10.176;2024-01-07T00:36:04;3.50;;;2.67;;
7029;SDS011;3556;53.500;10.176;2024-01-07T00:38:30;6.67;;;2.33;;
7029;SDS011;3556;53.500;10.176;2024-01-07T00:40:55;5.57;;;1.70;;
7029;SDS011;3556;53.500;10.176;2024-01-07T00:43:21;3.93;;;1.43;;
7029;SDS011;3556;53.500;10.176;2024-01-07T00:45:46;1.90;;;1.50;;
7029;SDS011;3556;53.500;10.176;2024-01-07T00:48:13;2.43;;;2.23;;
7029;SDS011;3556;53.500;10.176;2024-01-07T00:50:39;1.80;;;1.43;;
7029;SDS011;3556;53.500;10.176;2024-01-07T00:53:05;7.90;;;1.93;;
7029;SDS011;3556;53.500;10.176;2024-01-07T00:55:30;2.90;;;1.60;;
7029;SDS011;3556;53.500;10.176;2024-01-07T00:57:56;3.03;;;1.90;;
7029;SDS011;3556;53.500;10.176;2024-01-07T01:00:22;2.13;;;1.80;;
7029;SDS011;3556;53.500;10.176;2024-01-07T01:02:47;1.60;;;1.50;;
7029;SDS011;3556;53.500;10.176;2024-01-07T01:05:13;4.00;;;1.73;;
7029;SDS011;3556;53.500;10.176;2024-01-07T01:07:39;3.60;;;1.70;;
7029;SDS011;3556;53.500;10.176;2024-01-07T01:10:04;3.90;;;2.30;;
7029;SDS011;3556;53.500;10.176;2024-01-07T01:12:30;2.10;;;1.70;;
7029;SDS011;3556;53.500;10.176;2024-01-07T01:14:56;2.60;;;1.90;;
7029;SDS011;3556;53.500;10.176;2024-01-07T01:17:21;1.50;;;1.40;;
7029;SDS011;3556;53.500;10.176;2024-01-07T01:19:47;6.83;;;2.00;;
7029;SDS011;3556;53.500;10.176;2024-01-07T01:22:13;2.87;;;1.70;;
7029;SDS011;3556;53.500;10.176;2024-01-07T01:24:38;2.10;;;1.70;;
7029;SDS011;3556;53.500;10.176;2024-01-07T01:27:04;1.70;;;1.60;;
7029;SDS011;3556;53.500;10.176;2024-01-07T01:29:30;2.00;;;1.53;;
7029;SDS011;3556;53.500;10.176;2024-01-07T01:31:55;1.73;;;1.40;;
7029;SDS011;3556;53.500;10.176;2024-01-07T01:34:22;8.00;;;2.00;;
7029;SDS011;3556;53.500;10.176;2024-01-07T01:36:47;2.60;;;1.67;;
7029;SDS011;3556;53.500;10.176;2024-01-07T01:39:13;4.17;;;1.87;;
7029;SDS011;3556;53.500;10.176;2024-01-07T01:41:39;9.00;;;1.70;;
7029;SDS011;3556;53.500;10.176;2024-01-07T01:44:05;1.90;;;1.67;;
7029;SDS011;3556;53.500;10.176;2024-01-07T01:46:30;2.17;;;1.97;;
7029;SDS011;3556;53.500;10.176;2024-01-07T01:48:57;1.80;;;1.53;;
7029;SDS011;3556;53.500;10.176;2024-01-07T01:51:23;3.00;;;1.80;;
7029;SDS011;3556;53.500;10.176;2024-01-07T01:53:49;4.23;;;2.33;;
7029;SDS011;3556;53.500;10.176;2024-01-07T01:56:17;2.67;;;1.90;;
7029;SDS011;3556;53.500;10.176;2024-01-07T01:58:45;3.50;;;2.13;;
7029;SDS011;3556;53.500;10.176;2024-01-07T02:01:11;4.50;;;2.57;;
7029;SDS011;3556;53.500;10.176;2024-01-07T02:03:37;2.33;;;1.73;;
7029;SDS011;3556;53.500;10.176;2024-01-07T02:06:03;2.80;;;1.80;;
7029;SDS011;3556;53.500;10.176;2024-01-07T02:08:29;4.23;;;1.70;;
7029;SDS011;3556;53.500;10.176;2024-01-07T02:10:55;2.00;;;1.57;;
7029;SDS011;3556;53.500;10.176;2024-01-07T02:13:21;2.23;;;2.03;;
7029;SDS011;3556;53.500;10.176;2024-01-07T02:15:46;1.63;;;1.53;;
7029;SDS011;3556;53.500;10.176;2024-01-07T02:18:12;6.60;;;2.40;;
7029;SDS011;3556;53.500;10.176;2024-01-07T02:20:38;4.33;;;1.90;;
7029;SDS011;3556;53.500;10.176;2024-01-07T02:23:06;2.03;;;1.73;;
7029;SDS011;3556;53.500;10.176;2024-01-07T02:25:36;4.53;;;2.03;;
7029;SDS011;3556;53.500;10.176;2024-01-07T02:28:01;1.60;;;1.47;;
7029;SDS011;3556;53.500;10.176;2024-01-07T02:30:27;3.30;;;1.80;;
7029;SDS011;3556;53.500;10.176;2024-01-07T02:32:53;2.10;;;1.57;;
7029;SDS011;3556;53.500;10.176;2024-01-07T02:35:18;2.90;;;1.70;;
7029;SDS011;3556;53.500;10.176;2024-01-07T02:37:44;3.37;;;1.73;;
7029;SDS011;3556;53.500;10.176;2024-01-07T02:40:09;1.80;;;1.60;;
7029;SDS011;3556;53.500;10.176;2024-01-07T02:42:35;1.60;;;1.50;;
7029;SDS011;3556;53.500;10.176;2024-01-07T02:45:01;2.43;;;1.60;;
7029;SDS011;3556;53.500;10.176;2024-01-07T02:47:27;2.07;;;1.87;;
7029;SDS011;3556;53.500;10.176;2024-01-07T02:49:52;3.20;;;1.87;;
7029;SDS011;3556;53.500;10.176;2024-01-07T02:52:18;3.50;;;1.70;;
7029;SDS011;3556;53.500;10.176;2024-01-07T02:54:43;3.90;;;1.83;;
7029;SDS011;3556;53.500;10.176;2024-01-07T02:57:09;6.50;;;2.00;;
7029;SDS011;3556;53.500;10.176;2024-01-07T02:59:35;2.87;;;1.30;;
7029;SDS011;3556;53.500;10.176;2024-01-07T03:02:00;7.23;;;1.77;;
7029;SDS011;3556;53.500;10.176;2024-01-07T03:04:26;3.53;;;1.80;;
7029;SDS011;3556;53.500;10.176;2024-01-07T03:06:51;3.57;;;1.83;;
7029;SDS011;3556;53.500;10.176;2024-01-07T03:09:17;3.03;;;1.47;;
7029;SDS011;3556;53.500;10.176;2024-01-07T03:11:42;5.23;;;1.93;;
7029;SDS011;3556;53.500;10.176;2024-01-07T03:14:09;2.17;;;1.70;;
7029;SDS011;3556;53.500;10.176;2024-01-07T03:16:35;2.93;;;1.40;;
7029;SDS011;3556;53.500;10.176;2024-01-07T03:19:00;2.90;;;1.80;;
7029;SDS011;3556;53.500;10.176;2024-01-07T03:21:27;3.50;;;1.53;;
7029;SDS011;3556;53.500;10.176;2024-01-07T03:23:52;3.13;;;1.80;;
7029;SDS011;3556;53.500;10.176;2024-01-07T03:26:18;2.70;;;1.57;;
7029;SDS011;3556;53.500;10.176;2024-01-07T03:28:45;2.43;;;1.57;;
7029;SDS011;3556;53.500;10.176;2024-01-07T03:31:18;3.57;;;1.67;;
7029;SDS011;3556;53.500;10.176;2024-01-07T03:33:44;2.00;;;1.80;;
7029;SDS011;3556;53.500;10.176;2024-01-07T03:36:13;5.07;;;1.50;;
7029;SDS011;3556;53.500;10.176;2024-01-07T03:38:39;2.73;;;2.13;;
7029;SDS011;3556;53.500;10.176;2024-01-07T03:41:06;3.20;;;2.00;;
7029;SDS011;3556;53.500;10.176;2024-01-07T03:43:32;2.40;;;1.73;;
7029;SDS011;3556;53.500;10.176;2024-01-07T03:45:58;1.97;;;1.60;;
7029;SDS011;3556;53.500;10.176;2024-01-07T03:48:24;1.70;;;1.50;;
7029;SDS011;3556;53.500;10.176;2024-01-07T03:50:50;5.77;;;1.80;;
7029;SDS011;3556;53.500;10.176;2024-01-07T03:53:15;3.20;;;1.80;;
7029;SDS011;3556;53.500;10.176;2024-01-07T03:55:41;1.50;;;1.40;;
7029;SDS011;3556;53.500;10.176;2024-01-07T03:58:07;2.07;;;1.60;;
7029;SDS011;3556;53.500;10.176;2024-01-07T04:00:33;1.87;;;1.60;;
7029;SDS011;3556;53.500;10.176;2024-01-07T04:02:59;4.53;;;2.03;;
7029;SDS011;3556;53.500;10.176;2024-01-07T04:05:24;1.70;;;1.60;;
7029;SDS011;3556;53.500;10.176;2024-01-07T04:07:50;3.67;;;1.70;;
7029;SDS011;3556;53.500;10.176;2024-01-07T04:10:16;2.10;;;1.57;;
7029;SDS011;3556;53.500;10.176;2024-01-07T04:12:42;3.60;;;1.93;;
7029;SDS011;3556;53.500;10.176;2024-01-07T04:15:08;2.90;;;1.40;;
7029;SDS011;3556;53.500;10.176;2024-01-07T04:17:34;1.93;;;1.77;;
7029;SDS011;3556;53.500;10.176;2024-01-07T04:20:00;4.57;;;1.50;;
7029;SDS011;3556;53.500;10.176;2024-01-07T04:22:26;4.03;;;1.43;;
7029;SDS011;3556;53.500;10.176;2024-01-07T04:24:51;3.30;;;1.70;;
7029;SDS011;3556;53.500;10.176;2024-01-07T04:27:17;2.50;;;2.23;;
7029;SDS011;3556;53.500;10.176;2024-01-07T04:29:42;1.63;;;1.53;;
7029;SDS011;3556;53.500;10.176;2024-01-07T04:32:08;3.97;;;1.80;;
7029;SDS011;3556;53.500;10.176;2024-01-07T04:34:33;4.90;;;1.83;;
7029;SDS011;3556;53.500;10.176;2024-01-07T04:36:59;5.00;;;2.10;;
7029;SDS011;3556;53.500;10.176;2024-01-07T04:39:25;4.23;;;1.87;;
7029;SDS011;3556;53.500;10.176;2024-01-07T04:41:51;3.00;;;1.63;;
7029;SDS011;3556;53.500;10.176;2024-01-07T04:44:16;5.47;;;1.67;;
7029;SDS011;3556;53.500;10.176;2024-01-07T04:46:42;2.63;;;1.70;;
7029;SDS011;3556;53.500;10.176;2024-01-07T04:49:08;2.27;;;1.60;;
7029;SDS011;3556;53.500;10.176;2024-01-07T04:51:33;4.03;;;2.00;;
7029;SDS011;3556;53.500;10.176;2024-01-07T04:53:59;1.90;;;1.63;;
7029;SDS011;3556;53.500;10.176;2024-01-07T04:56:24;1.63;;;1.53;;
7029;SDS011;3556;53.500;10.176;2024-01-07T04:58:50;2.80;;;1.80;;
7029;SDS011;3556;53.500;10.176;2024-01-07T05:01:16;2.93;;;1.80;;
7029;SDS011;3556;53.500;10.176;2024-01-07T05:03:41;3.03;;;1.47;;
7029;SDS011;3556;53.500;10.176;2024-01-07T05:06:10;1.97;;;1.67;;
7029;SDS011;3556;53.500;10.176;2024-01-07T05:08:36;5.57;;;1.77;;
7029;SDS011;3556;53.500;10.176;2024-01-07T05:11:02;2.03;;;1.67;;
7029;SDS011;3556;53.500;10.176;2024-01-07T05:13:28;2.03;;;1.70;;
7029;SDS011;3556;53.500;10.176;2024-01-07T05:15:54;2.93;;;1.90;;
7029;SDS011;3556;53.500;10.176;2024-01-07T05:18:21;2.00;;;1.67;;
7029;SDS011;3556;53.500;10.176;2024-01-07T05:20:50;3.73;;;1.97;;
7029;SDS011;3556;53.500;10.176;2024-01-07T05:23:16;3.83;;;1.63;;
7029;SDS011;3556;53.500;10.176;2024-01-07T05:25:42;3.80;;;1.83;;
7029;SDS011;3556;53.500;10.176;2024-01-07T05:28:09;2.87;;;1.90;;
7029;SDS011;3556;53.500;10.176;2024-01-07T05:30:34;2.30;;;1.80;;
7029;SDS011;3556;53.500;10.176;2024-01-07T05:33:00;3.50;;;1.97;;
7029;SDS011;3556;53.500;10.176;2024-01-07T05:35:26;2.80;;;1.90;;
7029;SDS011;3556;53.500;10.176;2024-01-07T05:37:51;3.83;;;2.10;;
7029;SDS011;3556;53.500;10.176;2024-01-07T05:40:17;3.73;;;2.30;;
7029;SDS011;3556;53.500;10.176;2024-01-07T05:42:42;3.10;;;1.93;;
7029;SDS011;3556;53.500;10.176;2024-01-07T05:45:08;3.43;;;1.90;;
7029;SDS011;3556;53.500;10.176;2024-01-07T05:47:34;2.37;;;2.10;;
7029;SDS011;3556;53.500;10.176;2024-01-07T05:49:59;3.17;;;2.27;;
7029;SDS011;3556;53.500;10.176;2024-01-07T05:52:25;3.63;;;2.00;;
7029;SDS011;3556;53.500;10.176;2024-01-07T05:54:50;3.93;;;2.13;;
7029;SDS011;3556;53.500;10.176;2024-01-07T05:57:16;3.87;;;2.30;;
7029;SDS011;3556;53.500;10.176;2024-01-07T05:59:43;2.50;;;1.90;;
7029;SDS011;3556;53.500;10.176;2024-01-07T06:02:09;3.27;;;2.07;;
7029;SDS011;3556;53.500;10.176;2024-01-07T06:04:36;4.33;;;2.17;;
7029;SDS011;3556;53.500;10.176;2024-01-07T06:07:03;3.10;;;2.20;;
7029;SDS011;3556;53.500;10.176;2024-01-07T06:09:28;5.30;;;2.00;;
7029;SDS011;3556;53.500;10.176;2024-01-07T06:11:54;2.33;;;2.00;;
7029;SDS011;3556;53.500;10.176;2024-01-07T06:14:20;6.07;;;2.23;;
7029;SDS011;3556;53.500;10.176;2024-01-07T06:16:47;3.33;;;2.27;;
7029;SDS011;3556;53.500;10.176;2024-01-07T06:19:12;4.37;;;2.37;;
7029;SDS011;3556;53.500;10.176;2024-01-07T06:21:39;2.60;;;2.30;;
7029;SDS011;3556;53.500;10.176;2024-01-07T06:24:07;2.10;;;1.90;;
7029;SDS011;3556;53.500;10.176;2024-01-07T06:26:33;2.63;;;2.03;;
7029;SDS011;3556;53.500;10.176;2024-01-07T06:28:58;3.20;;;1.83;;
7029;SDS011;3556;53.500;10.176;2024-01-07T06:31:24;2.90;;;2.03;;
7029;SDS011;3556;53.500;10.176;2024-01-07T06:33:51;5.63;;;2.40;;
7029;SDS011;3556;53.500;10.176;2024-01-07T06:36:17;7.87;;;2.20;;
7029;SDS011;3556;53.500;10.176;2024-01-07T06:38:42;2.10;;;1.90;;
7029;SDS011;3556;53.500;10.176;2024-01-07T06:41:09;5.03;;;2.20;;
7029;SDS011;3556;53.500;10.176;2024-01-07T06:43:35;3.03;;;2.10;;
7029;SDS011;3556;53.500;10.176;2024-01-07T06:46:01;13.53;;;1.90;;
7029;SDS011;3556;53.500;10.176;2024-01-07T06:48:27;4.77;;;2.30;;
7029;SDS011;3556;53.500;10.176;2024-01-07T06:50:52;3.10;;;1.60;;
7029;SDS011;3556;53.500;10.176;2024-01-07T06:53:18;3.57;;;2.10;;
7029;SDS011;3556;53.500;10.176;2024-01-07T06:55:43;4.70;;;1.90;;
7029;SDS011;3556;53.500;10.176;2024-01-07T06:58:09;2.00;;;1.50;;
7029;SDS011;3556;53.500;10.176;2024-01-07T07:00:35;3.17;;;1.60;;
7029;SDS011;3556;53.500;10.176;2024-01-07T07:03:00;4.90;;;1.80;;
7029;SDS011;3556;53.500;10.176;2024-01-07T07:05:26;1.83;;;1.50;;
7029;SDS011;3556;53.500;10.176;2024-01-07T07:07:51;7.90;;;2.13;;
7029;SDS011;3556;53.500;10.176;2024-01-07T07:10:17;2.60;;;1.60;;
7029;SDS011;3556;53.500;10.176;2024-01-07T07:12:43;3.33;;;1.60;;
7029;SDS011;3556;53.500;10.176;2024-01-07T07:15:08;6.37;;;1.77;;
7029;SDS011;3556;53.500;10.176;2024-01-07T07:17:38;2.50;;;1.57;;
7029;SDS011;3556;53.500;10.176;2024-01-07T07:20:04;2.20;;;1.40;;
7029;SDS011;3556;53.500;10.176;2024-01-07T07:22:30;1.60;;;1.50;;
7029;SDS011;3556;53.500;10.176;2024-01-07T07:24:56;1.83;;;1.17;;
7029;SDS011;3556;53.500;10.176;2024-01-07T07:27:22;1.97;;;1.40;;
7029;SDS011;3556;53.500;10.176;2024-01-07T07:29:47;1.60;;;1.50;;
7029;SDS011;3556;53.500;10.176;2024-01-07T07:32:13;3.03;;;2.10;;
7029;SDS011;3556;53.500;10.176;2024-01-07T07:34:38;5.00;;;2.40;;
7029;SDS011;3556;53.500;10.176;2024-01-07T07:37:04;2.90;;;2.00;;
7029;SDS011;3556;53.500;10.176;2024-01-07T07:39:29;11.10;;;2.90;;
7029;SDS011;3556;53.500;10.176;2024-01-07T07:41:55;5.03;;;2.47;;
7029;SDS011;3556;53.500;10.176;2024-01-07T07:44:21;5.03;;;2.37;;
7029;SDS011;3556;53.500;10.176;2024-01-07T07:46:46;2.10;;;1.87;;
7029;SDS011;3556;53.500;10.176;2024-01-07T07:49:12;3.90;;;2.60;;
7029;SDS011;3556;53.500;10.176;2024-01-07T07:51:38;9.57;;;3.03;;
7029;SDS011;3556;53.500;10.176;2024-01-07T07:54:04;7.00;;;2.97;;
7029;SDS011;3556;53.500;10.176;2024-01-07T07:56:29;4.57;;;3.00;;
7029;SDS011;3556;53.500;10.176;2024-01-07T07:58:55;9.00;;;3.00;;
7029;SDS011;3556;53.500;10.176;2024-01-07T08:01:20;4.77;;;3.00;;
7029;SDS011;3556;53.500;10.176;2024-01-07T08:03:46;7.70;;;2.70;;
7029;SDS011;3556;53.500;10.176;2024-01-07T08:06:11;4.80;;;2.80;;
7029;SDS011;3556;53.500;10.176;2024-01-07T08:08:37;5.40;;;3.03;;
7029;SDS011;3556;53.500;10.176;2024-01-07T08:11:03;3.40;;;2.50;;
7029;SDS011;3556;53.500;10.176;2024-01-07T08:13:32;4.53;;;2.67;;
7029;SDS011;3556;53.500;10.176;2024-01-07T08:16:00;7.30;;;3.40;;
7029;SDS011;3556;53.500;10.176;2024-01-07T08:18:25;6.53;;;3.00;;
7029;SDS011;3556;53.500;10.176;2024-01-07T08:20:51;5.77;;;3.20;;
7029;SDS011;3556;53.500;10.176;2024-01-07T08:23:16;4.90;;;3.10;;
7029;SDS011;3556;53.500;10.176;2024-01-07T08:25:42;8.90;;;3.60;;
7029;SDS011;3556;53.500;10.176;2024-01-07T08:28:10;8.83;;;2.90;;
7029;SDS011;3556;53.500;10.176;2024-01-07T08:30:35;5.60;;;3.40;;
7029;SDS011;3556;53.500;10.176;2024-01-07T08:33:01;13.40;;;4.90;;
7029;SDS011;3556;53.500;10.176;2024-01-07T08:35:27;7.33;;;3.73;;
7029;SDS011;3556;53.500;10.176;2024-01-07T08:37:52;6.80;;;3.80;;
7029;SDS011;3556;53.500;10.176;2024-01-07T08:40:18;8.33;;;3.20;;
7029;SDS011;3556;53.500;10.176;2024-01-07T08:42:44;8.23;;;3.77;;
7029;SDS011;3556;53.500;10.176;2024-01-07T08:45:10;7.93;;;3.90;;
7029;SDS011;3556;53.500;10.176;2024-01-07T08:47:36;14.43;;;3.70;;
7029;SDS011;3556;53.500;10.176;2024-01-07T08:50:02;7.90;;;3.63;;
7029;SDS011;3556;53.500;10.176;2024-01-07T08:52:28;8.60;;;3.70;;
7029;SDS011;3556;53.500;10.176;2024-01-07T08:54:54;8.30;;;3.40;;
7029;SDS011;3556;53.500;10.176;2024-01-07T08:57:20;7.37;;;3.90;;
7029;SDS011;3556;53.500;10.176;2024-01-07T08:59:46;5.97;;;3.77;;
7029;SDS011;3556;53.500;10.176;2024-01-07T09:02:11;8.30;;;3.90;;
7029;SDS011;3556;53.500;10.176;2024-01-07T09:04:38;8.43;;;3.73;;
7029;SDS011;3556;53.500;10.176;2024-01-07T09:07:04;4.20;;;3.07;;
7029;SDS011;3556;53.500;10.176;2024-01-07T09:09:29;7.70;;;3.67;;
7029;SDS011;3556;53.500;10.176;2024-01-07T09:11:55;13.77;;;4.53;;
7029;SDS011;3556;53.500;10.176;2024-01-07T09:14:21;6.20;;;3.00;;
7029;SDS011;3556;53.500;10.176;2024-01-07T09:16:47;4.70;;;3.10;;
7029;SDS011;3556;53.500;10.176;2024-01-07T09:19:13;5.67;;;2.80;;
7029;SDS011;3556;53.500;10.176;2024-01-07T09:21:38;6.53;;;3.10;;
7029;SDS011;3556;53.500;10.176;2024-01-07T09:24:04;5.57;;;3.00;;
7029;SDS011;3556;53.500;10.176;2024-01-07T09:26:30;7.73;;;3.00;;
7029;SDS011;3556;53.500;10.176;2024-01-07T09:28:56;4.53;;;2.73;;
7029;SDS011;3556;53.500;10.176;2024-01-07T09:31:22;6.73;;;3.10;;
7029;SDS011;3556;53.500;10.176;2024-01-07T09:33:47;6.47;;;2.97;;
7029;SDS011;3556;53.500;10.176;2024-01-07T09:36:13;5.27;;;3.20;;
7029;SDS011;3556;53.500;10.176;2024-01-07T09:38:39;4.63;;;2.80;;
7029;SDS011;3556;53.500;10.176;2024-01-07T09:41:05;4.33;;;2.40;;
7029;SDS011;3556;53.500;10.176;2024-01-07T09:43:31;3.90;;;3.00;;
7029;SDS011;3556;53.500;10.176;2024-01-07T09:45:56;4.13;;;2.87;;
7029;SDS011;3556;53.500;10.176;2024-01-07T09:48:23;6.10;;;3.50;;
7029;SDS011;3556;53.500;10.176;2024-01-07T09:50:49;3.50;;;2.73;;
7029;SDS011;3556;53.500;10.176;2024-01-07T09:53:17;4.10;;;3.10;;
7029;SDS011;3556;53.500;10.176;2024-01-07T09:58:14;4.63;;;2.80;;
7029;SDS011;3556;53.500;10.176;2024-01-07T10:00:39;5.40;;;2.53;;
7029;SDS011;3556;53.500;10.176;2024-01-07T10:03:05;11.10;;;3.03;;
7029;SDS011;3556;53.500;10.176;2024-01-07T10:05:30;4.50;;;2.80;;
7029;SDS011;3556;53.500;10.176;2024-01-07T10:07:56;4.60;;;2.50;;
7029;SDS011;3556;53.500;10.176;2024-01-07T10:10:22;8.47;;;3.30;;
7029;SDS011;3556;53.500;10.176;2024-01-07T10:12:48;3.23;;;2.60;;
7029;SDS011;3556;53.500;10.176;2024-01-07T10:15:14;8.73;;;2.80;;
7029;SDS011;3556;53.500;10.176;2024-01-07T10:17:42;3.83;;;2.73;;
7029;SDS011;3556;53.500;10.176;2024-01-07T10:20:08;4.50;;;2.60;;
7029;SDS011;3556;53.500;10.176;2024-01-07T10:22:38;6.07;;;2.33;;
7029;SDS011;3556;53.500;10.176;2024-01-07T10:25:04;6.13;;;2.93;;
7029;SDS011;3556;53.500;10.176;2024-01-07T10:27:33;4.10;;;2.30;;
7029;SDS011;3556;53.500;10.176;2024-01-07T10:30:01;3.83;;;2.33;;
7029;SDS011;3556;53.500;10.176;2024-01-07T10:32:27;3.83;;;2.57;;
7029;SDS011;3556;53.500;10.176;2024-01-07T10:34:55;3.60;;;2.57;;
7029;SDS011;3556;53.500;10.176;2024-01-07T10:37:28;5.73;;;2.93;;
7029;SDS011;3556;53.500;10.176;2024-01-07T10:39:54;6.97;;;3.27;;
7029;SDS011;3556;53.500;10.176;2024-01-07T10:42:22;4.50;;;3.03;;
7029;SDS011;3556;53.500;10.176;2024-01-07T10:44:49;3.33;;;2.80;;
7029;SDS011;3556;53.500;10.176;2024-01-07T10:47:14;4.37;;;3.00;;
7029;SDS011;3556;53.500;10.176;2024-01-07T10:49:44;2.73;;;2.47;;
7029;SDS011;3556;53.500;10.176;2024-01-07T10:52:15;4.97;;;2.60;;
7029;SDS011;3556;53.500;10.176;2024-01-07T10:54:42;3.40;;;2.70;;
7029;SDS011;3556;53.500;10.176;2024-01-07T10:57:23;2.80;;;2.13;;
7029;SDS011;3556;53.500;10.176;2024-01-07T10:59:57;4.07;;;3.10;;
7029;SDS011;3556;53.500;10.176;2024-01-07T11:02:25;6.60;;;2.83;;
7029;SDS011;3556;53.500;10.176;2024-01-07T11:04:54;3.57;;;3.03;;
7029;SDS011;3556;53.500;10.176;2024-01-07T11:07:32;5.63;;;2.30;;
7029;SDS011;3556;53.500;10.176;2024-01-07T11:10:16;8.23;;;3.43;;
7029;SDS011;3556;53.500;10.176;2024-01-07T11:12:55;5.07;;;2.47;;
7029;SDS011;3556;53.500;10.176;2024-01-07T11:18:17;2.83;;;2.30;;
7029;SDS011;3556;53.500;10.176;2024-01-07T11:20:46;9.83;;;2.80;;
7029;SDS011;3556;53.500;10.176;2024-01-07T11:26:07;7.20;;;2.70;;
7029;SDS011;3556;53.500;10.176;2024-01-07T11:28:53;4.00;;;2.20;;
7029;SDS011;3556;53.500;10.176;2024-01-07T11:37:11;4.23;;;2.60;;
7029;SDS011;3556;53.500;10.176;2024-01-07T11:39:38;5.67;;;3.07;;
7029;SDS011;3556;53.500;10.176;2024-01-07T11:42:13;3.57;;;2.50;;
7029;SDS011;3556;53.500;10.176;2024-01-07T11:44:52;5.10;;;3.17;;
7029;SDS011;3556;53.500;10.176;2024-01-07T11:47:19;4.80;;;2.90;;
7029;SDS011;3556;53.500;10.176;2024-01-07T11:49:46;5.70;;;2.70;;
7029;SDS011;3556;53.500;10.176;2024-01-07T11:52:14;4.80;;;2.80;;
7029;SDS011;3556;53.500;10.176;2024-01-07T11:54:40;4.07;;;2.80;;
7029;SDS011;3556;53.500;10.176;2024-01-07T11:57:06;5.33;;;3.07;;
7029;SDS011;3556;53.500;10.176;2024-01-07T11:59:35;5.13;;;3.03;;
7029;SDS011;3556;53.500;10.176;2024-01-07T12:02:02;3.97;;;2.93;;
7029;SDS011;3556;53.500;10.176;2024-01-07T12:04:32;3.63;;;2.80;;
7029;SDS011;3556;53.500;10.176;2024-01-07T12:06:58;5.50;;;2.97;;
7029;SDS011;3556;53.500;10.176;2024-01-07T12:09:24;4.83;;;3.30;;
7029;SDS011;3556;53.500;10.176;2024-01-07T12:11:50;6.67;;;3.30;;
7029;SDS011;3556;53.500;10.176;2024-01-07T12:14:17;5.57;;;3.00;;
7029;SDS011;3556;53.500;10.176;2024-01-07T12:16:44;6.10;;;3.30;;
7029;SDS011;3556;53.500;10.176;2024-01-07T12:19:10;6.27;;;3.50;;
7029;SDS011;3556;53.500;10.176;2024-01-07T12:21:36;6.60;;;2.90;;
7029;SDS011;3556;53.500;10.176;2024-01-07T12:24:03;7.10;;;3.00;;
7029;SDS011;3556;53.500;10.176;2024-01-07T12:26:29;4.27;;;2.90;;
7029;SDS011;3556;53.500;10.176;2024-01-07T12:28:58;4.93;;;2.80;;
7029;SDS011;3556;53.500;10.176;2024-01-07T12:31:28;5.97;;;3.07;;
7029;SDS011;3556;53.500;10.176;2024-01-07T12:33:56;3.77;;;2.63;;
7029;SDS011;3556;53.500;10.176;2024-01-07T12:36:22;3.60;;;2.90;;
7029;SDS011;3556;53.500;10.176;2024-01-07T12:38:48;3.70;;;2.97;;
7029;SDS011;3556;53.500;10.176;2024-01-07T12:41:14;5.50;;;3.00;;
7029;SDS011;3556;53.500;10.176;2024-01-07T12:43:40;3.43;;;3.03;;
7029;SDS011;3556;53.500;10.176;2024-01-07T12:46:05;3.83;;;2.80;;
7029;SDS011;3556;53.500;10.176;2024-01-07T12:48:31;3.87;;;2.70;;
7029;SDS011;3556;53.500;10.176;2024-01-07T12:50:57;2.80;;;2.30;;
7029;SDS011;3556;53.500;10.176;2024-01-07T12:53:23;4.43;;;3.13;;
7029;SDS011;3556;53.500;10.176;2024-01-07T12:55:49;4.20;;;3.20;;
7029;SDS011;3556;53.500;10.176;2024-01-07T12:58:15;4.70;;;3.27;;
7029;SDS011;3556;53.500;10.176;2024-01-07T13:00:41;5.20;;;3.37;;
7029;SDS011;3556;53.500;10.176;2024-01-07T13:03:10;3.77;;;2.80;;
7029;SDS011;3556;53.500;10.176;2024-01-07T13:05:43;6.70;;;3.30;;
7029;SDS011;3556;53.500;10.176;2024-01-07T13:08:09;4.20;;;3.00;;
7029;SDS011;3556;53.500;10.176;2024-01-07T13:10:34;4.60;;;3.17;;
7029;SDS011;3556;53.500;10.176;2024-01-07T13:13:00;4.20;;;2.40;;
7029;SDS011;3556;53.500;10.176;2024-01-07T13:15:26;4.17;;;2.60;;
7029;SDS011;3556;53.500;10.176;2024-01-07T13:17:51;4.23;;;2.67;;
7029;SDS011;3556;53.500;10.176;2024-01-07T13:20:17;3.27;;;2.20;;
7029;SDS011;3556;53.500;10.176;2024-01-07T13:22:45;5.43;;;2.40;;
7029;SDS011;3556;53.500;10.176;2024-01-07T13:25:11;4.40;;;2.70;;
7029;SDS011;3556;53.500;10.176;2024-01-07T13:27:37;4.97;;;2.77;;
7029;SDS011;3556;53.500;10.176;2024-01-07T13:30:03;3.50;;;3.00;;
7029;SDS011;3556;53.500;10.176;2024-01-07T13:32:29;3.67;;;2.80;;
7029;SDS011;3556;53.500;10.176;2024-01-07T13:34:55;4.87;;;3.20;;
7029;SDS011;3556;53.500;10.176;2024-01-07T13:37:20;3.80;;;2.33;;
7029;SDS011;3556;53.500;10.176;2024-01-07T13:39:46;5.57;;;3.20;;
7029;SDS011;3556;53.500;10.176;2024-01-07T13:42:14;10.67;;;3.80;;
7029;SDS011;3556;53.500;10.176;2024-01-07T13:44:40;5.20;;;3.27;;
7029;SDS011;3556;53.500;10.176;2024-01-07T13:47:11;4.40;;;2.27;;
7029;SDS011;3556;53.500;10.176;2024-01-07T13:49:39;4.27;;;2.53;;
7029;SDS011;3556;53.500;10.176;2024-01-07T13:52:05;3.73;;;2.53;;
7029;SDS011;3556;53.500;10.176;2024-01-07T13:54:30;4.33;;;2.80;;
7029;SDS011;3556;53.500;10.176;2024-01-07T13:56:56;3.13;;;2.70;;
7029;SDS011;3556;53.500;10.176;2024-01-07T13:59:21;2.90;;;2.00;;
7029;SDS011;3556;53.500;10.176;2024-01-07T14:01:48;4.43;;;2.40;;
7029;SDS011;3556;53.500;10.176;2024-01-07T14:04:14;5.27;;;2.30;;
7029;SDS011;3556;53.500;10.176;2024-01-07T14:06:40;3.13;;;2.40;;
7029;SDS011;3556;53.500;10.176;2024-01-07T14:09:05;3.30;;;2.60;;
7029;SDS011;3556;53.500;10.176;2024-01-07T14:11:33;2.80;;;2.20;;
7029;SDS011;3556;53.500;10.176;2024-01-07T14:13:59;4.50;;;2.00;;
7029;SDS011;3556;53.500;10.176;2024-01-07T14:16:26;5.27;;;2.20;;
7029;SDS011;3556;53.500;10.176;2024-01-07T14:18:52;2.87;;;2.50;;
7029;SDS011;3556;53.500;10.176;2024-01-07T14:21:18;3.77;;;2.40;;
7029;SDS011;3556;53.500;10.176;2024-01-07T14:23:44;3.50;;;2.30;;
7029;SDS011;3556;53.500;10.176;2024-01-07T14:26:09;2.27;;;1.90;;
7029;SDS011;3556;53.500;10.176;2024-01-07T14:28:35;2.80;;;1.87;;
7029;SDS011;3556;53.500;10.176;2024-01-07T14:31:01;2.50;;;1.70;;
7029;SDS011;3556;53.500;10.176;2024-01-07T14:33:28;2.20;;;1.93;;
7029;SDS011;3556;53.500;10.176;2024-01-07T14:35:54;2.23;;;2.00;;
7029;SDS011;3556;53.500;10.176;2024-01-07T14:38:19;2.80;;;2.13;;
7029;SDS011;3556;53.500;10.176;2024-01-07T14:40:45;2.43;;;2.23;;
7029;SDS011;3556;53.500;10.176;2024-01-07T14:43:11;2.03;;;1.83;;
7029;SDS011;3556;53.500;10.176;2024-01-07T14:45:37;3.00;;;1.87;;
7029;SDS011;3556;53.500;10.176;2024-01-07T14:48:03;2.73;;;2.00;;
7029;SDS011;3556;53.500;10.176;2024-01-07T14:50:29;4.03;;;2.00;;
7029;SDS011;3556;53.500;10.176;2024-01-07T14:52:55;2.53;;;1.90;;
7029;SDS011;3556;53.500;10.176;2024-01-07T14:55:20;2.23;;;1.70;;
7029;SDS011;3556;53.500;10.176;2024-01-07T14:57:46;2.77;;;1.87;;
7029;SDS011;3556;53.500;10.176;2024-01-07T15:00:12;3.40;;;1.83;;
7029;SDS011;3556;53.500;10.176;2024-01-07T15:02:38;2.53;;;2.30;;
7029;SDS011;3556;53.500;10.176;2024-01-07T15:05:04;4.73;;;2.10;;
7029;SDS011;3556;53.500;10.176;2024-01-07T15:07:30;4.60;;;2.10;;
7029;SDS011;3556;53.500;10.176;2024-01-07T15:09:56;4.70;;;2.43;;